createdAt,value
2023-11-07T00:00:27.278Z,99522.84
2023-11-07T00:02:58.016Z,99529.03
2023-11-07T00:05:26.381Z,99526.69
2023-11-07T00:07:54.763Z,99528.53
2023-11-07T00:10:25.439Z,99537.16
2023-11-07T00:12:54.829Z,99536.44
2023-11-07T00:15:27.556Z,99527.94
2023-11-07T00:17:58.257Z,99536.81
2023-11-07T00:20:26.587Z,99533.50
2023-11-07T00:22:54.799Z,99531.09
2023-11-07T00:25:23.402Z,99533.75
2023-11-07T00:27:51.754Z,99537.38
2023-11-07T00:30:21.716Z,99535.81
2023-11-07T00:32:49.988Z,99542.13
2023-11-07T00:35:18.342Z,99536.34
2023-11-07T00:37:47.182Z,99540.06
2023-11-07T00:40:16.093Z,99535.91
2023-11-07T00:42:46.265Z,99534.47
2023-11-07T00:45:15.219Z,99530.22
2023-11-07T00:47:45.288Z,99534.63
2023-11-07T00:50:13.823Z,99535.06
2023-11-07T00:52:42.450Z,99536.94
2023-11-07T00:55:11.372Z,99534.63
2023-11-07T00:57:39.515Z,99537.41
2023-11-07T01:00:09.290Z,99532.47
2023-11-07T01:02:38.833Z,99542.25
2023-11-07T01:05:14.747Z,99550.94
2023-11-07T01:07:45.874Z,99542.25
2023-11-07T01:10:14.711Z,99550.88
2023-11-07T01:12:43.318Z,99543.72
2023-11-07T01:15:13.875Z,99536.63
2023-11-07T01:17:42.798Z,99539.91
2023-11-07T01:20:15.813Z,99537.41
2023-11-07T01:22:45.850Z,99537.66
2023-11-07T01:25:14.411Z,99535.28
2023-11-07T01:27:45.824Z,99541.44
2023-11-07T01:30:16.145Z,99540.63
2023-11-07T01:32:46.790Z,99542.59
2023-11-07T01:35:21.862Z,99542.63
2023-11-07T01:37:50.157Z,99544.38
2023-11-07T01:40:19.337Z,99548.81
2023-11-07T01:42:50.925Z,99554.13
2023-11-07T01:45:19.804Z,99556.81
2023-11-07T01:47:48.806Z,99558.63
2023-11-07T01:50:19.343Z,99562.97
2023-11-07T01:52:47.765Z,99556.88
2023-11-07T01:55:19.015Z,99566.50
2023-11-07T01:57:51.086Z,99560.50
2023-11-07T02:00:20.935Z,99558.63
2023-11-07T02:02:49.405Z,99564.66
2023-11-07T02:05:21.993Z,99555.09
2023-11-07T02:07:51.897Z,99556.88
2023-11-07T02:10:20.799Z,99563.91
2023-11-07T02:12:50.259Z,99546.75
2023-11-07T02:15:30.804Z,99557.16
2023-11-07T02:18:01.209Z,99554.69
2023-11-07T02:20:32.057Z,99556.63
2023-11-07T02:23:05.595Z,99561.16
2023-11-07T02:25:36.327Z,99566.53
2023-11-07T02:28:05.600Z,99568.53
2023-11-07T02:30:34.097Z,99572.03
2023-11-07T02:33:06.150Z,99565.19
2023-11-07T02:35:34.880Z,99563.44
2023-11-07T02:38:04.050Z,99563.44
2023-11-07T02:40:32.645Z,99567.72
2023-11-07T02:43:03.726Z,99557.38
2023-11-07T02:45:31.946Z,99562.63
2023-11-07T02:48:00.987Z,99562.69
2023-11-07T02:50:29.761Z,99567.00
2023-11-07T02:52:58.582Z,99568.72
2023-11-07T02:55:27.637Z,99563.44
2023-11-07T02:57:56.357Z,99555.72
2023-11-07T03:00:28.053Z,99561.78
2023-11-07T03:02:58.141Z,99577.44
2023-11-07T03:05:26.674Z,99574.75
2023-11-07T03:07:54.740Z,99566.88
2023-11-07T03:10:23.308Z,99569.44
2023-11-07T03:12:51.656Z,99573.72
2023-11-07T03:15:20.025Z,99572.69
2023-11-07T03:17:50.381Z,99572.47
2023-11-07T03:20:19.353Z,99576.03
2023-11-07T03:22:48.083Z,99576.94
2023-11-07T03:25:18.177Z,99574.19
2023-11-07T03:27:46.759Z,99578.50
2023-11-07T03:30:15.280Z,99581.69
2023-11-07T03:32:43.853Z,99586.72
2023-11-07T03:35:14.140Z,99580.56
2023-11-07T03:37:45.230Z,99585.03
2023-11-07T03:40:14.223Z,99577.38
2023-11-07T03:42:42.713Z,99572.16
2023-11-07T03:45:12.849Z,99579.09
2023-11-07T03:47:42.052Z,99574.75
2023-11-07T03:50:12.040Z,99573.72
2023-11-07T03:52:43.211Z,99570.91
2023-11-07T03:55:11.657Z,99565.69
2023-11-07T03:57:40.532Z,99569.22
2023-11-07T04:00:12.049Z,99563.19
2023-11-07T04:02:42.610Z,99570.91
2023-11-07T04:05:11.801Z,99576.09
2023-11-07T04:07:41.268Z,99570.13
2023-11-07T04:10:11.993Z,99576.94
2023-11-07T04:12:41.575Z,99565.50
2023-11-07T04:15:11.236Z,99571.41
2023-11-07T04:17:41.861Z,99567.47
2023-11-07T04:20:12.329Z,99561.94
2023-11-07T04:22:41.580Z,99577.34
2023-11-07T04:25:12.662Z,99564.19
2023-11-07T04:27:41.859Z,99570.03
2023-11-07T04:30:11.783Z,99575.91
2023-11-07T04:32:42.272Z,99575.91
2023-11-07T04:35:13.245Z,99572.53
2023-11-07T04:37:43.530Z,99561.84
2023-11-07T04:40:14.381Z,99571.25
2023-11-07T04:42:43.386Z,99565.88
2023-11-07T04:45:12.633Z,99573.47
2023-11-07T04:47:41.983Z,99563.94
2023-11-07T04:50:13.335Z,99568.81
2023-11-07T04:52:41.836Z,99580.88
2023-11-07T04:55:10.611Z,99573.84
2023-11-07T04:57:43.143Z,99579.06
2023-11-07T05:00:13.881Z,99575.50
2023-11-07T05:02:41.797Z,99574.41
2023-11-07T05:05:12.753Z,99574.22
2023-11-07T05:07:41.557Z,99581.94
2023-11-07T05:10:13.639Z,99581.84
2023-11-07T05:12:45.377Z,99567.84
2023-11-07T05:15:14.346Z,99572.91
2023-11-07T05:17:42.819Z,99576.28
2023-11-07T05:20:15.260Z,99569.22
2023-11-07T05:22:48.902Z,99585.66
2023-11-07T05:25:19.492Z,99605.63
2023-11-07T05:27:50.236Z,99588.97
2023-11-07T05:30:19.458Z,99598.19
2023-11-07T05:32:50.003Z,99608.50
2023-11-07T05:35:18.988Z,99603.03
2023-11-07T05:37:49.799Z,99617.53
2023-11-07T05:40:20.524Z,99614.50
2023-11-07T05:42:50.857Z,99597.81
2023-11-07T05:45:19.883Z,99620.69
2023-11-07T05:47:48.806Z,99621.34
2023-11-07T05:50:17.660Z,99624.66
2023-11-07T05:52:46.683Z,99636.78
2023-11-07T05:55:15.745Z,99630.53
2023-11-07T05:57:44.847Z,99631.13
2023-11-07T06:00:17.103Z,99634.72
2023-11-07T06:02:46.034Z,99634.44
2023-11-07T06:05:14.747Z,99639.31
2023-11-07T06:07:43.719Z,99642.44
2023-11-07T06:10:14.644Z,99639.69
2023-11-07T06:12:42.851Z,99644.75
2023-11-07T06:15:16.011Z,99649.69
2023-11-07T06:17:44.246Z,99652.13
2023-11-07T06:20:14.412Z,99656.97
2023-11-07T06:22:46.264Z,99662.06
2023-11-07T06:25:16.622Z,99666.47
2023-11-07T06:28:00.168Z,99663.91
2023-11-07T06:30:31.513Z,99677.47
2023-11-07T06:33:00.088Z,99673.72
2023-11-07T06:35:28.968Z,99675.16
2023-11-07T06:37:57.369Z,99674.91
2023-11-07T06:40:28.501Z,99678.91
2023-11-07T06:42:56.976Z,99682.19
2023-11-07T06:45:25.608Z,99692.34
2023-11-07T06:47:55.237Z,99694.59
2023-11-07T06:50:27.528Z,99688.16
2023-11-07T06:52:57.648Z,99699.03
2023-11-07T06:55:26.745Z,99699.59
2023-11-07T06:57:57.177Z,99694.09
2023-11-07T07:00:27.400Z,99700.59
2023-11-07T07:03:06.188Z,99702.91
2023-11-07T07:05:34.945Z,99693.19
2023-11-07T07:08:04.771Z,99705.84
2023-11-07T07:10:36.457Z,99692.81
2023-11-07T07:13:05.404Z,99691.19
2023-11-07T07:15:38.017Z,99699.41
2023-11-07T07:18:09.909Z,99698.69
2023-11-07T07:20:38.887Z,99696.47
2023-11-07T07:23:08.597Z,99700.19
2023-11-07T07:25:37.568Z,99709.72
2023-11-07T07:28:07.353Z,99713.16
2023-11-07T07:30:38.919Z,99696.34
2023-11-07T07:33:11.267Z,99711.50
2023-11-07T07:35:40.871Z,99696.22
2023-11-07T07:38:10.941Z,99699.03
2023-11-07T07:40:39.861Z,99706.38
2023-11-07T07:43:16.630Z,99705.25
2023-11-07T07:45:45.704Z,99718.97
2023-11-07T07:48:16.384Z,99722.16
2023-11-07T07:50:48.029Z,99725.34
2023-11-07T07:53:17.407Z,99715.56
2023-11-07T07:55:46.474Z,99724.66
2023-11-07T07:58:20.663Z,99727.00
2023-11-07T08:00:54.010Z,99725.19
2023-11-07T08:03:26.112Z,99734.34
2023-11-07T08:05:54.717Z,99744.72
2023-11-07T08:08:23.290Z,99744.31
2023-11-07T08:10:53.929Z,99738.63
2023-11-07T08:13:22.510Z,99732.31
2023-11-07T08:15:51.279Z,99738.09
2023-11-07T08:18:19.968Z,99740.47
2023-11-07T08:20:51.835Z,99741.09
2023-11-07T08:23:20.100Z,99740.94
2023-11-07T08:25:48.974Z,99744.38
2023-11-07T08:28:19.402Z,99740.88
2023-11-07T08:30:48.835Z,99751.53
2023-11-07T08:33:18.804Z,99755.97
2023-11-07T08:35:49.215Z,99752.88
2023-11-07T08:38:17.763Z,99758.50
2023-11-07T08:40:53.019Z,99742.28
2023-11-07T08:43:21.447Z,99756.69
2023-11-07T08:45:56.186Z,99758.81
2023-11-07T08:48:27.801Z,99755.56
2023-11-07T08:50:59.519Z,99757.91
2023-11-07T08:53:30.682Z,99756.81
2023-11-07T08:55:59.008Z,99758.22
2023-11-07T08:58:30.126Z,99759.75
2023-11-07T09:00:59.768Z,99761.78
2023-11-07T09:03:28.368Z,99759.34
2023-11-07T09:06:00.086Z,99763.47
2023-11-07T09:08:29.930Z,99761.03
2023-11-07T09:10:58.644Z,99769.88
2023-11-07T09:13:28.738Z,99762.88
2023-11-07T09:16:01.623Z,99768.84
2023-11-07T09:18:33.384Z,99769.69
2023-11-07T09:21:03.717Z,99770.03
2023-11-07T09:23:32.481Z,99768.50
2023-11-07T09:26:04.352Z,99769.16
2023-11-07T09:28:33.238Z,99772.50
2023-11-07T09:31:01.668Z,99774.00
2023-11-07T09:33:33.001Z,99782.50
2023-11-07T09:36:02.148Z,99778.94
2023-11-07T09:38:47.107Z,99781.28
2023-11-07T09:41:21.177Z,99781.72
2023-11-07T09:43:53.257Z,99773.56
2023-11-07T09:46:25.915Z,99776.97
2023-11-07T09:48:56.638Z,99779.81
2023-11-07T09:51:28.899Z,99786.19
2023-11-07T09:54:02.958Z,99788.75
2023-11-07T09:56:32.910Z,99788.66
2023-11-07T09:59:15.690Z,99780.75
2023-11-07T10:01:46.089Z,99785.00
2023-11-07T10:04:16.448Z,99777.78
2023-11-07T10:06:45.709Z,99771.50
2023-11-07T10:09:18.789Z,99784.31
2023-11-07T10:11:51.221Z,99777.09
2023-11-07T10:14:21.738Z,99783.78
2023-11-07T10:17:00.317Z,99785.72
2023-11-07T10:19:29.142Z,99785.84
2023-11-07T10:21:58.745Z,99777.00
2023-11-07T10:24:45.144Z,99778.78
2023-11-07T10:27:16.621Z,99780.88
2023-11-07T10:29:59.489Z,99779.69
2023-11-07T10:32:47.597Z,99781.25
2023-11-07T10:35:17.063Z,99789.81
2023-11-07T10:37:47.143Z,99776.47
2023-11-07T10:40:21.293Z,99779.31
2023-11-07T10:42:50.989Z,99777.50
2023-11-07T10:45:22.890Z,99778.25
2023-11-07T10:47:51.332Z,99768.81
2023-11-07T10:50:20.426Z,99774.56
2023-11-07T10:52:50.541Z,99767.44
2023-11-07T10:55:26.641Z,99774.31
2023-11-07T10:58:01.369Z,99778.53
2023-11-07T11:00:36.635Z,99782.94
2023-11-07T11:03:13.694Z,99786.06
2023-11-07T11:05:45.447Z,99781.38
2023-11-07T11:08:24.696Z,99783.25
2023-11-07T11:10:59.947Z,99789.72
2023-11-07T11:13:29.764Z,99797.03
2023-11-07T11:16:00.133Z,99787.53
2023-11-07T11:18:35.587Z,99786.47
2023-11-07T11:21:10.905Z,99786.84
2023-11-07T11:23:46.707Z,99784.38
2023-11-07T11:26:29.208Z,99775.78
2023-11-07T11:28:58.633Z,99779.38
2023-11-07T11:31:37.621Z,99784.28
2023-11-07T11:34:36.943Z,99790.28
2023-11-07T11:37:06.832Z,99785.56
2023-11-07T11:39:48.610Z,99781.00
2023-11-07T11:42:19.167Z,99785.50
2023-11-07T11:45:40.881Z,99780.03
2023-11-07T11:48:17.535Z,99775.31
2023-11-07T11:50:50.267Z,99775.66
2023-11-07T11:53:38.050Z,99775.41
2023-11-07T11:56:13.920Z,99782.94
2023-11-07T12:02:01.437Z,99761.88
2023-11-07T12:04:37.448Z,99767.91
2023-11-07T12:07:25.030Z,99761.06
2023-11-07T12:10:00.555Z,99761.41
2023-11-07T12:12:29.826Z,99758.88
2023-11-07T12:15:00.063Z,99761.59
2023-11-07T12:17:46.720Z,99754.69
2023-11-07T12:20:19.869Z,99767.28
2023-11-07T12:22:50.203Z,99761.63
2023-11-07T12:25:22.469Z,99762.16
2023-11-07T12:28:07.713Z,99752.41
2023-11-07T12:30:37.461Z,99764.47
2023-11-07T12:33:13.134Z,99755.44
2023-11-07T12:35:43.938Z,99757.94
2023-11-07T12:38:15.006Z,99754.53
2023-11-07T12:40:44.916Z,99765.38
2023-11-07T12:43:13.662Z,99758.75
2023-11-07T12:45:49.745Z,99752.28
2023-11-07T12:48:29.734Z,99756.13
2023-11-07T12:50:58.573Z,99753.78
2023-11-07T12:53:32.218Z,99755.84
2023-11-07T12:56:01.700Z,99757.53
2023-11-07T12:58:31.867Z,99760.91
2023-11-07T13:01:02.197Z,99765.25
2023-11-07T13:03:34.292Z,99765.34
2023-11-07T13:06:05.877Z,99765.34
2023-11-07T13:08:37.323Z,99766.47
2023-11-07T13:11:15.978Z,99766.56
2023-11-07T13:13:45.880Z,99766.66
2023-11-07T13:16:16.361Z,99768.63
2023-11-07T13:18:53.248Z,99765.72
2023-11-07T13:21:22.431Z,99764.88
2023-11-07T13:23:51.404Z,99769.19
2023-11-07T13:26:20.359Z,99766.88
2023-11-07T13:28:51.420Z,99771.94
2023-11-07T13:31:20.711Z,99762.25
2023-11-07T13:33:52.320Z,99770.91
2023-11-07T13:36:21.743Z,99766.66
2023-11-07T13:38:52.930Z,99770.25
2023-11-07T13:41:22.146Z,99763.94
2023-11-07T13:43:52.470Z,99759.72
2023-11-07T13:46:21.620Z,99759.81
2023-11-07T13:48:54.346Z,99768.06
2023-11-07T13:51:23.617Z,99771.84
2023-11-07T13:53:52.350Z,99770.44
2023-11-07T13:56:27.093Z,99767.94
2023-11-07T13:59:00.804Z,99769.16
2023-11-07T14:01:32.634Z,99765.38
2023-11-07T14:04:07.127Z,99768.91
2023-11-07T14:06:37.672Z,99770.97
2023-11-07T14:09:11.875Z,99771.25
2023-11-07T14:11:44.811Z,99768.88
2023-11-07T14:14:13.656Z,99769.06
2023-11-07T14:16:42.615Z,99769.25
2023-11-07T14:19:14.440Z,99761.81
2023-11-07T14:21:43.475Z,99769.78
2023-11-07T14:24:12.666Z,99766.56
2023-11-07T14:26:42.161Z,99771.16
2023-11-07T14:29:33.027Z,99765.81
2023-11-07T14:32:00.643Z,99771.91
2023-11-07T14:34:30.661Z,99769.47
2023-11-07T14:37:07.798Z,99764.28
2023-11-07T14:39:36.347Z,99773.22
2023-11-07T14:42:08.887Z,99764.53
2023-11-07T14:44:38.210Z,99770.81
2023-11-07T14:47:08.771Z,99774.41
2023-11-07T14:49:40.751Z,99770.91
2023-11-07T14:52:10.732Z,99769.31
2023-11-07T14:54:39.431Z,99773.03
2023-11-07T14:57:09.707Z,99774.91
2023-11-07T14:59:38.641Z,99776.97
2023-11-07T15:02:14.559Z,99775.59
2023-11-07T15:04:52.942Z,99768.94
2023-11-07T15:07:21.899Z,99768.50
2023-11-07T15:09:50.084Z,99773.25
2023-11-07T15:12:19.071Z,99772.56
2023-11-07T15:14:48.334Z,99775.44
2023-11-07T15:17:17.307Z,99779.34
2023-11-07T15:19:49.988Z,99776.97
2023-11-07T15:22:20.107Z,99785.25
2023-11-07T15:24:48.796Z,99771.91
2023-11-07T15:27:17.514Z,99785.66
2023-11-07T15:29:45.906Z,99793.53
2023-11-07T15:32:13.995Z,99788.41
2023-11-07T15:34:42.847Z,99787.75
2023-11-07T15:37:11.061Z,99786.22
2023-11-07T15:39:43.645Z,99784.84
2023-11-07T15:42:11.807Z,99788.50
2023-11-07T15:44:45.521Z,99780.84
2023-11-07T15:47:13.863Z,99793.22
2023-11-07T15:49:41.954Z,99796.84
2023-11-07T15:52:10.388Z,99789.88
2023-11-07T15:54:41.826Z,99792.75
2023-11-07T15:57:13.192Z,99787.66
2023-11-07T15:59:42.404Z,99786.38
2023-11-07T16:02:10.777Z,99790.16
2023-11-07T16:04:49.750Z,99788.00
2023-11-07T16:07:19.878Z,99791.94
2023-11-07T16:09:48.963Z,99796.81
2023-11-07T16:12:18.742Z,99787.78
2023-11-07T16:14:47.281Z,99787.22
2023-11-07T16:17:15.797Z,99789.22
2023-11-07T16:19:43.900Z,99784.16
2023-11-07T16:22:12.359Z,99788.53
2023-11-07T16:24:40.559Z,99789.53
2023-11-07T16:27:09.751Z,99788.75
2023-11-07T16:29:43.068Z,99779.25
2023-11-07T16:32:11.570Z,99782.00
2023-11-07T16:34:43.414Z,99788.13
2023-11-07T16:37:11.694Z,99789.38
2023-11-07T16:39:40.722Z,99786.13
2023-11-07T16:42:10.428Z,99784.50
2023-11-07T16:44:43.624Z,99784.78
2023-11-07T16:47:15.957Z,99790.47
2023-11-07T16:49:45.166Z,99788.16
2023-11-07T16:52:13.597Z,99787.72
2023-11-07T16:54:42.649Z,99785.78
2023-11-07T16:57:12.543Z,99790.88
2023-11-07T16:59:43.235Z,99795.66
2023-11-07T17:02:11.929Z,99799.50
2023-11-07T17:04:41.877Z,99802.59
2023-11-07T17:07:10.989Z,99803.13
2023-11-07T17:09:41.930Z,99798.41
2023-11-07T17:12:13.614Z,99794.50
2023-11-07T17:14:43.142Z,99798.16
2023-11-07T17:17:13.604Z,99793.31
2023-11-07T17:19:44.835Z,99792.94
2023-11-07T17:22:14.372Z,99800.31
2023-11-07T17:24:42.561Z,99792.75
2023-11-07T17:27:10.933Z,99792.13
2023-11-07T17:29:39.377Z,99793.28
2023-11-07T17:32:12.102Z,99788.22
2023-11-07T17:34:40.589Z,99789.25
2023-11-07T17:37:09.087Z,99796.44
2023-11-07T17:39:39.188Z,99798.44
2023-11-07T17:42:09.978Z,99797.84
2023-11-07T17:44:39.301Z,99790.50
2023-11-07T17:47:07.876Z,99792.34
2023-11-07T17:49:37.770Z,99794.41
2023-11-07T17:52:07.048Z,99793.69
2023-11-07T17:54:37.103Z,99786.00
2023-11-07T17:57:08.123Z,99786.25
2023-11-07T17:59:36.562Z,99791.72
2023-11-07T18:02:04.718Z,99784.03
2023-11-07T18:04:33.213Z,99787.69
2023-11-07T18:07:02.926Z,99792.31
2023-11-07T18:09:31.500Z,99789.13
2023-11-07T18:12:00.076Z,99786.81
2023-11-07T18:14:29.113Z,99790.56
2023-11-07T18:16:58.270Z,99786.50
2023-11-07T18:19:26.977Z,99784.09
2023-11-07T18:21:55.241Z,99793.59
2023-11-07T18:24:24.830Z,99791.19
2023-11-07T18:26:57.940Z,99789.63
2023-11-07T18:29:26.414Z,99800.31
2023-11-07T18:31:55.549Z,99790.09
2023-11-07T18:34:24.172Z,99789.97
2023-11-07T18:37:03.212Z,99802.22
2023-11-07T18:39:34.710Z,99796.38
2023-11-07T18:42:06.287Z,99793.03
2023-11-07T18:44:37.033Z,99793.22
2023-11-07T18:47:06.375Z,99792.66
2023-11-07T18:49:35.315Z,99786.97
2023-11-07T18:52:07.338Z,99798.28
2023-11-07T18:54:37.057Z,99797.81
2023-11-07T18:57:12.552Z,99795.41
2023-11-07T18:59:41.342Z,99798.91
2023-11-07T19:02:19.566Z,99794.66
2023-11-07T19:04:48.600Z,99785.41
2023-11-07T19:07:17.797Z,99793.41
2023-11-07T19:09:51.156Z,99796.22
2023-11-07T19:12:20.102Z,99801.50
2023-11-07T19:14:48.634Z,99797.25
2023-11-07T19:17:19.667Z,99793.91
2023-11-07T19:19:53.664Z,99795.66
2023-11-07T19:22:25.112Z,99785.31
2023-11-07T19:24:57.520Z,99781.94
2023-11-07T19:27:26.858Z,99785.31
2023-11-07T19:29:58.221Z,99781.75
2023-11-07T19:32:26.939Z,99786.88
2023-11-07T19:34:57.432Z,99785.22
2023-11-07T19:37:25.927Z,99792.31
2023-11-07T19:39:58.484Z,99786.09
2023-11-07T19:42:30.206Z,99783.41
2023-11-07T19:44:58.857Z,99787.44
2023-11-07T19:47:27.446Z,99785.59
2023-11-07T19:49:59.477Z,99782.09
2023-11-07T19:52:27.658Z,99781.06
2023-11-07T19:54:57.811Z,99786.38
2023-11-07T19:57:30.636Z,99780.38
2023-11-07T19:59:59.212Z,99782.09
2023-11-07T20:02:27.970Z,99785.59
2023-11-07T20:04:59.453Z,99782.19
2023-11-07T20:07:27.832Z,99782.28
2023-11-07T20:09:58.007Z,99786.00
2023-11-07T20:12:26.142Z,99786.97
2023-11-07T20:14:54.621Z,99784.28
2023-11-07T20:17:23.160Z,99787.00
2023-11-07T20:19:53.769Z,99788.78
2023-11-07T20:22:22.420Z,99785.34
2023-11-07T20:24:51.382Z,99774.13
2023-11-07T20:27:26.598Z,99770.72
2023-11-07T20:29:55.980Z,99774.19
2023-11-07T20:32:28.664Z,99775.13
2023-11-07T20:34:59.351Z,99770.13
2023-11-07T20:37:28.940Z,99774.66
2023-11-07T20:39:58.119Z,99771.34
2023-11-07T20:42:30.215Z,99761.91
2023-11-07T20:45:08.123Z,99761.97
2023-11-07T20:47:41.349Z,99768.13
2023-11-07T20:50:10.905Z,99757.06
2023-11-07T20:52:39.663Z,99763.13
2023-11-07T20:55:08.874Z,99764.09
2023-11-07T20:57:38.860Z,99765.19
2023-11-07T21:00:09.785Z,99767.09
2023-11-07T21:02:40.865Z,99763.66
2023-11-07T21:05:10.885Z,99764.41
2023-11-07T21:07:40.101Z,99768.59
2023-11-07T21:10:10.645Z,99766.63
2023-11-07T21:12:40.807Z,99756.16
2023-11-07T21:15:11.806Z,99753.34
2023-11-07T21:17:43.942Z,99761.91
2023-11-07T21:20:12.722Z,99760.91
2023-11-07T21:22:44.301Z,99755.69
2023-11-07T21:25:12.652Z,99753.94
2023-11-07T21:27:43.127Z,99759.88
2023-11-07T21:30:14.599Z,99756.25
2023-11-07T21:32:44.560Z,99753.75
2023-11-07T21:35:15.036Z,99759.03
2023-11-07T21:37:43.789Z,99755.66
2023-11-07T21:40:14.290Z,99758.34
2023-11-07T21:42:45.312Z,99752.44
2023-11-07T21:45:16.945Z,99751.78
2023-11-07T21:47:48.557Z,99753.59
2023-11-07T21:50:18.865Z,99744.13
2023-11-07T21:52:47.505Z,99746.97
2023-11-07T21:55:16.851Z,99752.97
2023-11-07T21:57:47.373Z,99749.75
2023-11-07T22:00:17.628Z,99752.47
2023-11-07T22:02:48.863Z,99748.13
2023-11-07T22:05:17.778Z,99743.88
2023-11-07T22:07:46.711Z,99746.56
2023-11-07T22:10:15.873Z,99747.53
2023-11-07T22:12:46.957Z,99746.00
2023-11-07T22:15:15.177Z,99751.38
2023-11-07T22:17:43.640Z,99752.44
2023-11-07T22:20:15.380Z,99756.00
2023-11-07T22:22:44.089Z,99759.66
2023-11-07T22:25:16.172Z,99753.63
2023-11-07T22:27:45.048Z,99755.44
2023-11-07T22:30:15.502Z,99749.53
2023-11-07T22:32:45.410Z,99754.72
2023-11-07T22:35:15.662Z,99738.22
2023-11-07T22:37:47.121Z,99741.63
2023-11-07T22:40:15.259Z,99744.13
2023-11-07T22:42:48.956Z,99735.59
2023-11-07T22:45:21.526Z,99743.28
2023-11-07T22:47:50.212Z,99743.34
2023-11-07T22:50:19.640Z,99743.34
2023-11-07T22:52:50.986Z,99738.22
2023-11-07T22:55:28.878Z,99738.19
2023-11-07T22:58:00.344Z,99729.72
2023-11-07T23:00:39.559Z,99740.81
2023-11-07T23:03:14.647Z,99719.34
2023-11-07T23:05:50.166Z,99735.69
2023-11-07T23:08:27.366Z,99728.78
2023-11-07T23:10:55.564Z,99728.81
2023-11-07T23:13:30.643Z,99725.31
2023-11-07T23:16:07.109Z,99724.56
2023-11-07T23:18:38.548Z,99722.88
2023-11-07T23:21:14.504Z,99708.28
2023-11-07T23:23:42.800Z,99711.84
2023-11-07T23:26:15.180Z,99703.25
2023-11-07T23:28:47.241Z,99703.25
2023-11-07T23:31:19.826Z,99705.81
2023-11-07T23:33:53.054Z,99695.47
2023-11-07T23:36:24.376Z,99694.47
2023-11-07T23:38:56.649Z,99690.97
2023-11-07T23:41:27.523Z,99688.34
2023-11-07T23:43:58.021Z,99687.41
2023-11-07T23:46:31.930Z,99683.91
2023-11-07T23:49:03.630Z,99682.97
2023-11-07T23:51:31.929Z,99688.13
2023-11-07T23:54:00.884Z,99683.63
2023-11-07T23:56:41.235Z,99669.72
2023-11-07T23:59:12.467Z,99646.59
